sensor_id;sensor_type;location;lat;lon;timestamp;temperature;humidity
21335;DHT22;69435;52.670;13.544;2024-03-29T00:01:06;10.80;45.00
21335;DHT22;69435;52.670;13.544;2024-03-29T00:03:52;10.70;45.40
21335;DHT22;69435;52.670;13.544;2024-03-29T00:06:41;10.70;45.40
21335;DHT22;69435;52.670;13.544;2024-03-29T00:09:27;10.70;45.80
21335;DHT22;69435;52.670;13.544;2024-03-29T00:12:14;10.70;46.20
21335;DHT22;69435;52.670;13.544;2024-03-29T00:14:59;10.70;46.60
21335;DHT22;69435;52.670;13.544;2024-03-29T00:17:46;10.80;46.60
21335;DHT22;69435;52.670;13.544;2024-03-29T00:20:32;10.80;46.60
21335;DHT22;69435;52.670;13.544;2024-03-29T00:23:18;10.80;46.80
21335;DHT22;69435;52.670;13.544;2024-03-29T00:26:03;10.90;46.80
21335;DHT22;69435;52.670;13.544;2024-03-29T00:28:49;10.90;47.00
21335;DHT22;69435;52.670;13.544;2024-03-29T00:31:35;10.90;46.90
21335;DHT22;69435;52.670;13.544;2024-03-29T00:34:21;10.90;47.10
21335;DHT22;69435;52.670;13.544;2024-03-29T00:37:07;11.00;47.10
21335;DHT22;69435;52.670;13.544;2024-03-29T00:39:53;11.00;48.00
21335;DHT22;69435;52.670;13.544;2024-03-29T00:42:39;11.00;48.80
21335;DHT22;69435;52.670;13.544;2024-03-29T00:45:25;11.00;49.40
21335;DHT22;69435;52.670;13.544;2024-03-29T00:48:11;10.90;49.60
21335;DHT22;69435;52.670;13.544;2024-03-29T00:51:00;10.90;49.40
21335;DHT22;69435;52.670;13.544;2024-03-29T00:53:46;10.90;49.80
21335;DHT22;69435;52.670;13.544;2024-03-29T00:56:32;10.80;49.80
21335;DHT22;69435;52.670;13.544;2024-03-29T00:59:18;10.80;50.00
21335;DHT22;69435;52.670;13.544;2024-03-29T01:02:05;10.80;50.20
21335;DHT22;69435;52.670;13.544;2024-03-29T01:04:51;10.80;50.20
21335;DHT22;69435;52.670;13.544;2024-03-29T01:07:40;10.80;50.20
21335;DHT22;69435;52.670;13.544;2024-03-29T01:10:26;10.80;50.00
21335;DHT22;69435;52.670;13.544;2024-03-29T01:13:12;10.80;49.90
21335;DHT22;69435;52.670;13.544;2024-03-29T01:15:58;10.80;49.90
21335;DHT22;69435;52.670;13.544;2024-03-29T01:18:44;10.70;49.80
21335;DHT22;69435;52.670;13.544;2024-03-29T01:21:30;10.70;50.60
21335;DHT22;69435;52.670;13.544;2024-03-29T01:24:16;10.60;49.80
21335;DHT22;69435;52.670;13.544;2024-03-29T01:27:02;10.60;49.80
21335;DHT22;69435;52.670;13.544;2024-03-29T01:29:52;10.50;49.80
21335;DHT22;69435;52.670;13.544;2024-03-29T01:32:38;10.50;50.10
21335;DHT22;69435;52.670;13.544;2024-03-29T01:35:24;10.40;50.10
21335;DHT22;69435;52.670;13.544;2024-03-29T01:38:10;10.40;50.40
21335;DHT22;69435;52.670;13.544;2024-03-29T01:40:56;10.30;50.70
21335;DHT22;69435;52.670;13.544;2024-03-29T01:43:41;10.20;50.90
21335;DHT22;69435;52.670;13.544;2024-03-29T01:46:27;10.20;51.10
21335;DHT22;69435;52.670;13.544;2024-03-29T01:49:14;10.20;51.40
21335;DHT22;69435;52.670;13.544;2024-03-29T01:52:02;10.20;51.40
21335;DHT22;69435;52.670;13.544;2024-03-29T01:54:49;10.10;51.70
21335;DHT22;69435;52.670;13.544;2024-03-29T01:57:36;10.00;52.00
21335;DHT22;69435;52.670;13.544;2024-03-29T02:00:22;10.00;52.30
21335;DHT22;69435;52.670;13.544;2024-03-29T02:03:09;9.90;52.50
21335;DHT22;69435;52.670;13.544;2024-03-29T02:05:58;9.90;52.70
21335;DHT22;69435;52.670;13.544;2024-03-29T02:08:52;9.80;53.00
21335;DHT22;69435;52.670;13.544;2024-03-29T02:11:41;9.80;53.10
21335;DHT22;69435;52.670;13.544;2024-03-29T02:14:27;9.70;53.30
21335;DHT22;69435;52.670;13.544;2024-03-29T02:17:13;9.60;53.40
21335;DHT22;69435;52.670;13.544;2024-03-29T02:19:59;9.60;53.60
21335;DHT22;69435;52.670;13.544;2024-03-29T02:23:11;9.50;54.00
21335;DHT22;69435;52.670;13.544;2024-03-29T02:26:04;9.50;54.30
21335;DHT22;69435;52.670;13.544;2024-03-29T02:28:50;9.40;54.30
21335;DHT22;69435;52.670;13.544;2024-03-29T02:31:36;9.40;54.50
21335;DHT22;69435;52.670;13.544;2024-03-29T02:34:22;9.30;54.80
21335;DHT22;69435;52.670;13.544;2024-03-29T02:37:09;9.30;55.00
21335;DHT22;69435;52.670;13.544;2024-03-29T02:39:55;9.20;55.20
21335;DHT22;69435;52.670;13.544;2024-03-29T02:42:41;9.20;55.30
21335;DHT22;69435;52.670;13.544;2024-03-29T02:45:27;9.20;55.50
21335;DHT22;69435;52.670;13.544;2024-03-29T02:48:13;9.10;55.60
21335;DHT22;69435;52.670;13.544;2024-03-29T02:50:59;9.10;55.50
21335;DHT22;69435;52.670;13.544;2024-03-29T02:53:45;9.10;55.40
21335;DHT22;69435;52.670;13.544;2024-03-29T02:56:31;9.10;55.20
21335;DHT22;69435;52.670;13.544;2024-03-29T02:59:17;9.00;55.20
21335;DHT22;69435;52.670;13.544;2024-03-29T03:02:03;9.00;55.30
21335;DHT22;69435;52.670;13.544;2024-03-29T03:04:49;8.90;55.30
21335;DHT22;69435;52.670;13.544;2024-03-29T03:07:35;8.90;55.40
21335;DHT22;69435;52.670;13.544;2024-03-29T03:10:47;8.90;55.70
21335;DHT22;69435;52.670;13.544;2024-03-29T03:13:42;8.80;55.60
21335;DHT22;69435;52.670;13.544;2024-03-29T03:16:28;8.80;55.60
21335;DHT22;69435;52.670;13.544;2024-03-29T03:19:14;8.70;55.80
21335;DHT22;69435;52.670;13.544;2024-03-29T03:22:00;8.70;56.00
21335;DHT22;69435;52.670;13.544;2024-03-29T03:24:46;8.60;56.10
21335;DHT22;69435;52.670;13.544;2024-03-29T03:27:32;8.60;56.30
21335;DHT22;69435;52.670;13.544;2024-03-29T03:30:17;8.50;56.30
21335;DHT22;69435;52.670;13.544;2024-03-29T03:33:04;8.50;56.20
21335;DHT22;69435;52.670;13.544;2024-03-29T03:35:50;8.50;56.10
21335;DHT22;69435;52.670;13.544;2024-03-29T03:38:36;8.50;56.00
21335;DHT22;69435;52.670;13.544;2024-03-29T03:41:24;8.40;55.90
21335;DHT22;69435;52.670;13.544;2024-03-29T03:44:10;8.40;55.90
21335;DHT22;69435;52.670;13.544;2024-03-29T03:46:56;8.30;56.00
21335;DHT22;69435;52.670;13.544;2024-03-29T03:49:42;8.30;56.10
21335;DHT22;69435;52.670;13.544;2024-03-29T03:52:28;8.30;56.30
21335;DHT22;69435;52.670;13.544;2024-03-29T03:55:13;8.20;56.40
21335;DHT22;69435;52.670;13.544;2024-03-29T03:58:00;8.20;56.70
21335;DHT22;69435;52.670;13.544;2024-03-29T04:00:46;8.10;57.20
21335;DHT22;69435;52.670;13.544;2024-03-29T04:03:32;8.10;57.20
21335;DHT22;69435;52.670;13.544;2024-03-29T04:06:18;8.10;57.20
21335;DHT22;69435;52.670;13.544;2024-03-29T04:09:04;8.10;57.20
21335;DHT22;69435;52.670;13.544;2024-03-29T04:11:50;8.10;57.00
21335;DHT22;69435;52.670;13.544;2024-03-29T04:14:36;8.10;57.60
21335;DHT22;69435;52.670;13.544;2024-03-29T04:17:23;8.10;56.70
21335;DHT22;69435;52.670;13.544;2024-03-29T04:20:09;8.10;56.60
21335;DHT22;69435;52.670;13.544;2024-03-29T04:22:56;8.10;56.50
21335;DHT22;69435;52.670;13.544;2024-03-29T04:25:51;8.10;56.50
21335;DHT22;69435;52.670;13.544;2024-03-29T04:28:40;8.00;56.20
21335;DHT22;69435;52.670;13.544;2024-03-29T04:31:26;8.00;56.20
21335;DHT22;69435;52.670;13.544;2024-03-29T04:34:12;8.00;56.30
21335;DHT22;69435;52.670;13.544;2024-03-29T04:36:58;7.90;56.30
21335;DHT22;69435;52.670;13.544;2024-03-29T04:39:45;7.90;56.30
21335;DHT22;69435;52.670;13.544;2024-03-29T04:42:32;7.90;56.50
21335;DHT22;69435;52.670;13.544;2024-03-29T04:45:18;7.90;56.50
21335;DHT22;69435;52.670;13.544;2024-03-29T04:48:07;7.80;56.30
21335;DHT22;69435;52.670;13.544;2024-03-29T04:54:45;7.80;56.50
21335;DHT22;69435;52.670;13.544;2024-03-29T04:58:02;7.80;56.50
21335;DHT22;69435;52.670;13.544;2024-03-29T05:04:03;7.90;56.80
21335;DHT22;69435;52.670;13.544;2024-03-29T05:06:49;7.90;56.80
21335;DHT22;69435;52.670;13.544;2024-03-29T05:09:35;7.90;56.80
21335;DHT22;69435;52.670;13.544;2024-03-29T05:12:21;7.90;56.90
21335;DHT22;69435;52.670;13.544;2024-03-29T05:15:07;7.90;56.90
21335;DHT22;69435;52.670;13.544;2024-03-29T05:17:53;7.90;56.90
21335;DHT22;69435;52.670;13.544;2024-03-29T05:20:39;7.90;56.90
21335;DHT22;69435;52.670;13.544;2024-03-29T05:23:26;8.00;56.90
21335;DHT22;69435;52.670;13.544;2024-03-29T05:26:12;8.00;56.80
21335;DHT22;69435;52.670;13.544;2024-03-29T05:28:58;8.00;56.80
21335;DHT22;69435;52.670;13.544;2024-03-29T05:31:45;8.10;56.80
21335;DHT22;69435;52.670;13.544;2024-03-29T05:34:31;8.10;56.80
21335;DHT22;69435;52.670;13.544;2024-03-29T05:37:17;8.10;56.70
21335;DHT22;69435;52.670;13.544;2024-03-29T05:40:04;8.20;56.50
21335;DHT22;69435;52.670;13.544;2024-03-29T05:42:52;8.30;56.40
21335;DHT22;69435;52.670;13.544;2024-03-29T05:45:38;8.40;56.20
21335;DHT22;69435;52.670;13.544;2024-03-29T05:48:24;8.40;56.10
21335;DHT22;69435;52.670;13.544;2024-03-29T05:51:10;8.50;55.80
21335;DHT22;69435;52.670;13.544;2024-03-29T05:53:56;8.60;55.70
21335;DHT22;69435;52.670;13.544;2024-03-29T05:56:42;8.60;55.60
21335;DHT22;69435;52.670;13.544;2024-03-29T05:59:28;8.70;55.40
21335;DHT22;69435;52.670;13.544;2024-03-29T06:02:15;8.70;55.30
21335;DHT22;69435;52.670;13.544;2024-03-29T06:05:01;8.80;55.00
21335;DHT22;69435;52.670;13.544;2024-03-29T06:07:47;8.80;54.90
21335;DHT22;69435;52.670;13.544;2024-03-29T06:10:33;8.90;54.80
21335;DHT22;69435;52.670;13.544;2024-03-29T06:13:19;8.90;54.70
21335;DHT22;69435;52.670;13.544;2024-03-29T06:16:28;9.00;54.50
21335;DHT22;69435;52.670;13.544;2024-03-29T06:19:32;9.10;54.30
21335;DHT22;69435;52.670;13.544;2024-03-29T06:22:18;9.10;54.00
21335;DHT22;69435;52.670;13.544;2024-03-29T06:25:04;9.20;54.00
21335;DHT22;69435;52.670;13.544;2024-03-29T06:27:51;9.30;54.40
21335;DHT22;69435;52.670;13.544;2024-03-29T06:30:37;9.40;53.50
21335;DHT22;69435;52.670;13.544;2024-03-29T06:33:22;9.50;53.40
21335;DHT22;69435;52.670;13.544;2024-03-29T06:36:08;9.60;53.10
21335;DHT22;69435;52.670;13.544;2024-03-29T06:38:54;9.60;52.60
21335;DHT22;69435;52.670;13.544;2024-03-29T06:41:40;9.70;52.20
21335;DHT22;69435;52.670;13.544;2024-03-29T06:44:26;9.80;51.90
21335;DHT22;69435;52.670;13.544;2024-03-29T06:47:12;9.90;51.70
21335;DHT22;69435;52.670;13.544;2024-03-29T06:49:58;10.00;51.50
21335;DHT22;69435;52.670;13.544;2024-03-29T06:52:44;10.10;51.60
21335;DHT22;69435;52.670;13.544;2024-03-29T06:55:31;10.20;50.90
21335;DHT22;69435;52.670;13.544;2024-03-29T06:58:17;10.40;50.80
21335;DHT22;69435;52.670;13.544;2024-03-29T07:01:03;10.50;49.60
21335;DHT22;69435;52.670;13.544;2024-03-29T07:03:49;10.70;49.10
21335;DHT22;69435;52.670;13.544;2024-03-29T07:06:35;10.80;48.80
21335;DHT22;69435;52.670;13.544;2024-03-29T07:09:23;11.00;48.00
21335;DHT22;69435;52.670;13.544;2024-03-29T07:12:09;11.20;47.50
21335;DHT22;69435;52.670;13.544;2024-03-29T07:14:55;11.30;46.70
21335;DHT22;69435;52.670;13.544;2024-03-29T07:17:41;11.40;46.40
21335;DHT22;69435;52.670;13.544;2024-03-29T07:20:29;11.50;46.60
21335;DHT22;69435;52.670;13.544;2024-03-29T07:23:15;11.60;46.70
21335;DHT22;69435;52.670;13.544;2024-03-29T07:26:03;11.80;45.90
21335;DHT22;69435;52.670;13.544;2024-03-29T07:28:50;12.10;45.50
21335;DHT22;69435;52.670;13.544;2024-03-29T07:31:36;12.30;45.20
21335;DHT22;69435;52.670;13.544;2024-03-29T07:34:22;12.60;43.90
21335;DHT22;69435;52.670;13.544;2024-03-29T07:37:08;12.70;42.90
21335;DHT22;69435;52.670;13.544;2024-03-29T07:39:57;12.80;42.10
21335;DHT22;69435;52.670;13.544;2024-03-29T07:42:43;12.90;42.30
21335;DHT22;69435;52.670;13.544;2024-03-29T07:45:29;12.90;41.60
21335;DHT22;69435;52.670;13.544;2024-03-29T07:48:17;12.90;41.40
21335;DHT22;69435;52.670;13.544;2024-03-29T07:51:03;12.90;41.30
21335;DHT22;69435;52.670;13.544;2024-03-29T07:53:49;12.80;41.60
21335;DHT22;69435;52.670;13.544;2024-03-29T07:56:35;12.80;40.80
21335;DHT22;69435;52.670;13.544;2024-03-29T07:59:21;12.80;40.50
21335;DHT22;69435;52.670;13.544;2024-03-29T08:02:07;12.70;41.00
21335;DHT22;69435;52.670;13.544;2024-03-29T08:04:53;12.60;41.00
21335;DHT22;69435;52.670;13.544;2024-03-29T08:07:39;12.60;41.00
21335;DHT22;69435;52.670;13.544;2024-03-29T08:10:25;12.60;40.80
21335;DHT22;69435;52.670;13.544;2024-03-29T08:13:12;12.50;40.80
21335;DHT22;69435;52.670;13.544;2024-03-29T08:16:00;12.50;40.90
21335;DHT22;69435;52.670;13.544;2024-03-29T08:18:46;12.50;41.00
21335;DHT22;69435;52.670;13.544;2024-03-29T08:21:35;12.50;41.70
21335;DHT22;69435;52.670;13.544;2024-03-29T08:24:21;12.60;41.40
21335;DHT22;69435;52.670;13.544;2024-03-29T08:27:07;12.60;40.80
21335;DHT22;69435;52.670;13.544;2024-03-29T08:29:55;12.60;40.40
21335;DHT22;69435;52.670;13.544;2024-03-29T08:32:41;12.60;40.70
21335;DHT22;69435;52.670;13.544;2024-03-29T08:35:26;12.60;41.20
21335;DHT22;69435;52.670;13.544;2024-03-29T08:38:12;12.70;40.80
21335;DHT22;69435;52.670;13.544;2024-03-29T08:40:59;12.70;41.50
21335;DHT22;69435;52.670;13.544;2024-03-29T08:43:45;12.70;40.30
21335;DHT22;69435;52.670;13.544;2024-03-29T08:46:31;12.70;41.00
21335;DHT22;69435;52.670;13.544;2024-03-29T08:49:17;12.80;41.50
21335;DHT22;69435;52.670;13.544;2024-03-29T08:52:03;12.90;41.90
21335;DHT22;69435;52.670;13.544;2024-03-29T08:54:50;12.90;42.00
21335;DHT22;69435;52.670;13.544;2024-03-29T08:57:36;13.10;42.50
21335;DHT22;69435;52.670;13.544;2024-03-29T09:00:22;13.20;43.70
21335;DHT22;69435;52.670;13.544;2024-03-29T09:03:08;13.30;43.30
21335;DHT22;69435;52.670;13.544;2024-03-29T09:05:54;13.40;43.50
21335;DHT22;69435;52.670;13.544;2024-03-29T09:08:40;13.50;43.70
21335;DHT22;69435;52.670;13.544;2024-03-29T09:11:26;13.70;43.70
21335;DHT22;69435;52.670;13.544;2024-03-29T09:14:12;13.90;43.50
21335;DHT22;69435;52.670;13.544;2024-03-29T09:16:58;14.10;43.10
21335;DHT22;69435;52.670;13.544;2024-03-29T09:19:44;14.20;42.60
21335;DHT22;69435;52.670;13.544;2024-03-29T09:22:30;14.40;42.40
21335;DHT22;69435;52.670;13.544;2024-03-29T09:25:16;14.60;42.30
21335;DHT22;69435;52.670;13.544;2024-03-29T09:28:02;14.80;40.80
21335;DHT22;69435;52.670;13.544;2024-03-29T09:30:48;15.00;40.80
21335;DHT22;69435;52.670;13.544;2024-03-29T09:33:35;15.10;40.00
21335;DHT22;69435;52.670;13.544;2024-03-29T09:36:21;15.10;39.70
21335;DHT22;69435;52.670;13.544;2024-03-29T09:39:10;15.20;39.40
21335;DHT22;69435;52.670;13.544;2024-03-29T09:41:58;15.30;39.40
21335;DHT22;69435;52.670;13.544;2024-03-29T09:44:46;15.40;39.30
21335;DHT22;69435;52.670;13.544;2024-03-29T09:47:35;15.40;39.20
21335;DHT22;69435;52.670;13.544;2024-03-29T09:50:22;15.40;39.10
21335;DHT22;69435;52.670;13.544;2024-03-29T09:53:08;15.40;38.90
21335;DHT22;69435;52.670;13.544;2024-03-29T09:55:55;15.40;39.30
21335;DHT22;69435;52.670;13.544;2024-03-29T09:58:42;15.40;38.40
21335;DHT22;69435;52.670;13.544;2024-03-29T10:01:28;15.40;38.50
21335;DHT22;69435;52.670;13.544;2024-03-29T10:04:16;15.40;38.80
21335;DHT22;69435;52.670;13.544;2024-03-29T10:07:03;15.50;38.80
21335;DHT22;69435;52.670;13.544;2024-03-29T10:09:50;15.50;39.00
21335;DHT22;69435;52.670;13.544;2024-03-29T10:12:37;15.60;38.60
21335;DHT22;69435;52.670;13.544;2024-03-29T10:15:24;15.60;38.30
21335;DHT22;69435;52.670;13.544;2024-03-29T10:18:12;15.70;37.10
21335;DHT22;69435;52.670;13.544;2024-03-29T10:21:07;15.60;36.70
21335;DHT22;69435;52.670;13.544;2024-03-29T10:23:54;15.50;37.70
21335;DHT22;69435;52.670;13.544;2024-03-29T10:26:41;15.40;36.90
21335;DHT22;69435;52.670;13.544;2024-03-29T10:29:29;15.30;37.00
21335;DHT22;69435;52.670;13.544;2024-03-29T10:32:15;15.10;37.10
21335;DHT22;69435;52.670;13.544;2024-03-29T10:35:03;15.00;37.00
21335;DHT22;69435;52.670;13.544;2024-03-29T10:37:52;15.00;37.20
21335;DHT22;69435;52.670;13.544;2024-03-29T10:40:39;15.00;38.00
21335;DHT22;69435;52.670;13.544;2024-03-29T10:43:27;15.00;38.50
21335;DHT22;69435;52.670;13.544;2024-03-29T10:46:14;14.80;39.50
21335;DHT22;69435;52.670;13.544;2024-03-29T10:49:09;14.70;39.90
21335;DHT22;69435;52.670;13.544;2024-03-29T10:51:57;14.60;40.10
21335;DHT22;69435;52.670;13.544;2024-03-29T10:54:45;14.40;41.10
21335;DHT22;69435;52.670;13.544;2024-03-29T10:57:33;14.30;41.50
21335;DHT22;69435;52.670;13.544;2024-03-29T11:00:22;14.20;42.60
21335;DHT22;69435;52.670;13.544;2024-03-29T11:03:14;14.10;43.60
21335;DHT22;69435;52.670;13.544;2024-03-29T11:06:06;14.10;45.10
21335;DHT22;69435;52.670;13.544;2024-03-29T11:08:54;14.00;45.40
21335;DHT22;69435;52.670;13.544;2024-03-29T11:11:47;14.00;46.20
21335;DHT22;69435;52.670;13.544;2024-03-29T11:14:42;13.90;46.80
21335;DHT22;69435;52.670;13.544;2024-03-29T11:17:31;14.00;46.60
21335;DHT22;69435;52.670;13.544;2024-03-29T11:20:17;13.90;46.80
21335;DHT22;69435;52.670;13.544;2024-03-29T11:23:12;14.00;48.70
21335;DHT22;69435;52.670;13.544;2024-03-29T11:26:01;14.10;47.00
21335;DHT22;69435;52.670;13.544;2024-03-29T11:28:49;14.30;47.60
21335;DHT22;69435;52.670;13.544;2024-03-29T11:31:38;14.60;45.40
21335;DHT22;69435;52.670;13.544;2024-03-29T11:34:24;14.80;45.40
21335;DHT22;69435;52.670;13.544;2024-03-29T11:37:11;15.10;45.30
21335;DHT22;69435;52.670;13.544;2024-03-29T11:40:01;15.40;43.90
21335;DHT22;69435;52.670;13.544;2024-03-29T11:42:52;15.70;43.10
21335;DHT22;69435;52.670;13.544;2024-03-29T11:45:38;15.80;41.70
21335;DHT22;69435;52.670;13.544;2024-03-29T11:48:27;15.90;40.50
21335;DHT22;69435;52.670;13.544;2024-03-29T11:51:15;16.00;41.10
21335;DHT22;69435;52.670;13.544;2024-03-29T11:54:02;16.00;40.70
21335;DHT22;69435;52.670;13.544;2024-03-29T11:56:48;16.10;41.10
21335;DHT22;69435;52.670;13.544;2024-03-29T11:59:34;16.10;40.30
21335;DHT22;69435;52.670;13.544;2024-03-29T12:02:20;16.10;40.40
21335;DHT22;69435;52.670;13.544;2024-03-29T12:05:07;16.10;40.20
21335;DHT22;69435;52.670;13.544;2024-03-29T12:07:57;16.10;40.00
21335;DHT22;69435;52.670;13.544;2024-03-29T12:10:45;16.10;41.10
21335;DHT22;69435;52.670;13.544;2024-03-29T12:13:31;16.10;41.00
21335;DHT22;69435;52.670;13.544;2024-03-29T12:16:17;16.10;39.40
21335;DHT22;69435;52.670;13.544;2024-03-29T12:19:03;16.00;39.60
21335;DHT22;69435;52.670;13.544;2024-03-29T12:21:51;15.80;40.20
21335;DHT22;69435;52.670;13.544;2024-03-29T12:24:37;15.60;41.80
21335;DHT22;69435;52.670;13.544;2024-03-29T12:27:24;15.50;42.00
21335;DHT22;69435;52.670;13.544;2024-03-29T12:30:10;15.40;42.30
21335;DHT22;69435;52.670;13.544;2024-03-29T12:35:54;15.40;42.20
21335;DHT22;69435;52.670;13.544;2024-03-29T12:38:42;15.30;42.60
21335;DHT22;69435;52.670;13.544;2024-03-29T12:41:30;15.30;43.40
21335;DHT22;69435;52.670;13.544;2024-03-29T12:44:16;15.30;43.10
21335;DHT22;69435;52.670;13.544;2024-03-29T12:47:02;15.40;43.80
21335;DHT22;69435;52.670;13.544;2024-03-29T12:49:48;15.50;41.70
21335;DHT22;69435;52.670;13.544;2024-03-29T12:52:37;15.70;41.50
21335;DHT22;69435;52.670;13.544;2024-03-29T12:55:26;15.80;41.20
21335;DHT22;69435;52.670;13.544;2024-03-29T12:58:17;16.10;40.70
21335;DHT22;69435;52.670;13.544;2024-03-29T13:01:05;16.30;39.40
21335;DHT22;69435;52.670;13.544;2024-03-29T13:03:52;16.50;38.70
21335;DHT22;69435;52.670;13.544;2024-03-29T13:06:38;16.70;38.00
21335;DHT22;69435;52.670;13.544;2024-03-29T13:09:24;16.80;38.40
21335;DHT22;69435;52.670;13.544;2024-03-29T13:12:10;17.00;37.50
21335;DHT22;69435;52.670;13.544;2024-03-29T13:15:03;17.10;35.90
21335;DHT22;69435;52.670;13.544;2024-03-29T13:17:59;17.20;35.80
21335;DHT22;69435;52.670;13.544;2024-03-29T13:20:46;17.20;35.60
21335;DHT22;69435;52.670;13.544;2024-03-29T13:23:32;17.20;34.30
21335;DHT22;69435;52.670;13.544;2024-03-29T13:26:18;17.10;34.40
21335;DHT22;69435;52.670;13.544;2024-03-29T13:29:04;17.00;34.00
21335;DHT22;69435;52.670;13.544;2024-03-29T13:31:50;16.90;33.40
21335;DHT22;69435;52.670;13.544;2024-03-29T13:34:36;16.80;33.30
21335;DHT22;69435;52.670;13.544;2024-03-29T13:37:22;16.80;34.20
21335;DHT22;69435;52.670;13.544;2024-03-29T13:40:12;16.70;34.10
21335;DHT22;69435;52.670;13.544;2024-03-29T13:42:59;16.80;34.10
21335;DHT22;69435;52.670;13.544;2024-03-29T13:45:45;16.80;33.90
21335;DHT22;69435;52.670;13.544;2024-03-29T13:48:31;16.90;33.30
21335;DHT22;69435;52.670;13.544;2024-03-29T13:51:17;16.90;33.40
21335;DHT22;69435;52.670;13.544;2024-03-29T13:54:03;17.00;33.30
21335;DHT22;69435;52.670;13.544;2024-03-29T13:56:49;17.10;32.90
21335;DHT22;69435;52.670;13.544;2024-03-29T13:59:35;17.20;32.40
21335;DHT22;69435;52.670;13.544;2024-03-29T14:02:21;17.30;31.90
21335;DHT22;69435;52.670;13.544;2024-03-29T14:05:09;17.20;31.90
21335;DHT22;69435;52.670;13.544;2024-03-29T14:07:56;17.30;32.30
21335;DHT22;69435;52.670;13.544;2024-03-29T14:10:42;17.40;31.70
21335;DHT22;69435;52.670;13.544;2024-03-29T14:13:28;17.40;31.30
21335;DHT22;69435;52.670;13.544;2024-03-29T14:16:14;17.40;31.10
21335;DHT22;69435;52.670;13.544;2024-03-29T14:19:00;17.40;31.80
21335;DHT22;69435;52.670;13.544;2024-03-29T14:21:46;17.50;31.20
21335;DHT22;69435;52.670;13.544;2024-03-29T14:24:32;17.60;31.60
21335;DHT22;69435;52.670;13.544;2024-03-29T14:27:21;17.70;31.90
21335;DHT22;69435;52.670;13.544;2024-03-29T14:30:10;17.80;31.60
21335;DHT22;69435;52.670;13.544;2024-03-29T14:32:56;18.00;31.30
21335;DHT22;69435;52.670;13.544;2024-03-29T14:35:42;18.00;31.40
21335;DHT22;69435;52.670;13.544;2024-03-29T14:38:29;18.00;31.40
21335;DHT22;69435;52.670;13.544;2024-03-29T14:41:15;18.00;31.70
21335;DHT22;69435;52.670;13.544;2024-03-29T14:44:01;17.90;32.20
21335;DHT22;69435;52.670;13.544;2024-03-29T14:46:48;17.80;31.80
21335;DHT22;69435;52.670;13.544;2024-03-29T14:49:34;17.80;32.60
21335;DHT22;69435;52.670;13.544;2024-03-29T14:52:20;17.70;32.50
21335;DHT22;69435;52.670;13.544;2024-03-29T14:55:06;17.60;33.00
21335;DHT22;69435;52.670;13.544;2024-03-29T14:57:52;17.50;33.20
21335;DHT22;69435;52.670;13.544;2024-03-29T15:00:38;17.50;33.70
21335;DHT22;69435;52.670;13.544;2024-03-29T15:03:25;17.50;33.90
21335;DHT22;69435;52.670;13.544;2024-03-29T15:06:11;17.40;34.10
21335;DHT22;69435;52.670;13.544;2024-03-29T15:08:57;17.40;34.50
21335;DHT22;69435;52.670;13.544;2024-03-29T15:11:43;17.40;34.60
21335;DHT22;69435;52.670;13.544;2024-03-29T15:14:29;17.40;34.90
21335;DHT22;69435;52.670;13.544;2024-03-29T15:17:16;17.40;35.20
21335;DHT22;69435;52.670;13.544;2024-03-29T15:20:02;17.40;35.00
21335;DHT22;69435;52.670;13.544;2024-03-29T15:22:50;17.50;35.50
21335;DHT22;69435;52.670;13.544;2024-03-29T15:25:37;17.50;35.40
21335;DHT22;69435;52.670;13.544;2024-03-29T15:28:25;17.50;35.30
21335;DHT22;69435;52.670;13.544;2024-03-29T15:31:30;17.40;34.90
21335;DHT22;69435;52.670;13.544;2024-03-29T15:34:16;17.30;35.10
21335;DHT22;69435;52.670;13.544;2024-03-29T15:37:02;17.30;35.50
21335;DHT22;69435;52.670;13.544;2024-03-29T15:39:48;17.30;35.70
21335;DHT22;69435;52.670;13.544;2024-03-29T15:42:34;17.20;35.70
21335;DHT22;69435;52.670;13.544;2024-03-29T15:45:21;17.20;35.80
21335;DHT22;69435;52.670;13.544;2024-03-29T15:48:07;17.20;36.00
21335;DHT22;69435;52.670;13.544;2024-03-29T15:50:53;17.10;36.30
21335;DHT22;69435;52.670;13.544;2024-03-29T15:53:39;17.10;36.40
21335;DHT22;69435;52.670;13.544;2024-03-29T15:56:26;17.10;36.60
21335;DHT22;69435;52.670;13.544;2024-03-29T15:59:14;17.00;36.90
21335;DHT22;69435;52.670;13.544;2024-03-29T16:02:01;17.00;37.10
21335;DHT22;69435;52.670;13.544;2024-03-29T16:04:47;17.00;37.30
21335;DHT22;69435;52.670;13.544;2024-03-29T16:07:33;16.90;37.40
21335;DHT22;69435;52.670;13.544;2024-03-29T16:10:19;16.90;37.90
21335;DHT22;69435;52.670;13.544;2024-03-29T16:13:05;16.90;38.20
21335;DHT22;69435;52.670;13.544;2024-03-29T16:15:52;16.90;38.30
21335;DHT22;69435;52.670;13.544;2024-03-29T16:18:39;16.90;38.50
21335;DHT22;69435;52.670;13.544;2024-03-29T16:21:25;16.80;38.50
21335;DHT22;69435;52.670;13.544;2024-03-29T16:24:16;16.80;38.60
21335;DHT22;69435;52.670;13.544;2024-03-29T16:27:02;16.70;38.50
21335;DHT22;69435;52.670;13.544;2024-03-29T16:29:48;16.70;38.80
21335;DHT22;69435;52.670;13.544;2024-03-29T16:32:34;16.60;39.20
21335;DHT22;69435;52.670;13.544;2024-03-29T16:35:20;16.60;39.30
21335;DHT22;69435;52.670;13.544;2024-03-29T16:38:06;16.60;39.50
21335;DHT22;69435;52.670;13.544;2024-03-29T16:40:55;16.50;39.80
21335;DHT22;69435;52.670;13.544;2024-03-29T16:43:42;16.40;39.90
21335;DHT22;69435;52.670;13.544;2024-03-29T16:46:28;16.40;40.10
21335;DHT22;69435;52.670;13.544;2024-03-29T16:49:14;16.40;40.20
21335;DHT22;69435;52.670;13.544;2024-03-29T16:52:00;16.30;40.50
21335;DHT22;69435;52.670;13.544;2024-03-29T16:54:46;16.30;40.80
21335;DHT22;69435;52.670;13.544;2024-03-29T16:57:32;16.30;41.20
21335;DHT22;69435;52.670;13.544;2024-03-29T17:00:18;16.30;41.60
21335;DHT22;69435;52.670;13.544;2024-03-29T17:03:04;16.30;41.70
21335;DHT22;69435;52.670;13.544;2024-03-29T17:05:50;16.30;41.90
21335;DHT22;69435;52.670;13.544;2024-03-29T17:08:36;16.20;42.00
21335;DHT22;69435;52.670;13.544;2024-03-29T17:11:22;16.20;42.10
21335;DHT22;69435;52.670;13.544;2024-03-29T17:14:08;16.20;42.50
21335;DHT22;69435;52.670;13.544;2024-03-29T17:16:54;16.10;42.80
21335;DHT22;69435;52.670;13.544;2024-03-29T17:19:42;16.10;43.10
21335;DHT22;69435;52.670;13.544;2024-03-29T17:22:28;16.10;43.30
21335;DHT22;69435;52.670;13.544;2024-03-29T17:25:14;16.00;43.50
21335;DHT22;69435;52.670;13.544;2024-03-29T17:28:00;16.00;43.90
21335;DHT22;69435;52.670;13.544;2024-03-29T17:30:46;15.90;44.10
21335;DHT22;69435;52.670;13.544;2024-03-29T17:33:32;15.90;44.20